Joao Machado

Recruteur en chef - Chaves
25 Févr 2027
Jeudi
Processus

Personnalité

Adaptabilité (1) Ambition (2) Controverse (18) Loyauté (20) Pression (18) Professionnalisme (17) Sportivité (19) Tempérament (9)

Profil

Style d'entraînement Démocratique
Diplôme Continental C
Détermination 8
Gestion des joueurs 11
Motivation 8
Discipline 6
Satisfaction professionnelle
49%
Fatigue
0%
Rôle Recruteur en chef
Salaire 11.9K p/s
Contrat 14.03.2030

Performance

Comportement Normal
Efficacité de l'entraînement
17%
Développement des joueurs
40%
Prévention des blessures
40%
Mise en place tactique
45%

Événements récents

A évalué un joueur maintenant
A participé à une réunion de recrutement maintenant
A recommandé une cible de transfert maintenant
A recommandé une cible de transfert maintenant
A recommandé une cible de transfert maintenant
A participé à une réunion de recrutement maintenant
A évalué un joueur 7j
A évalué un joueur 7j

Suivi en cours

141
Joueur Club Statut Capacité Confiance Observé Dernière observation Dernier vote
Yousef Salech Cardiff City Actif 122 / 120 40% 2 24.02.2027 -
Adnan Courtois KV Oostende Actif 133 / 140 40% 2 24.02.2027 -
Vinícius Lopes Santa Clara Actif 131 / 115 40% 2 23.02.2027 -
Sam Bell Bristol City Actif 129 / 128 40% 1 23.02.2027 -
David Ankeye Zeleznicar Pancevo Actif 126 / 116 40% 2 22.02.2027 -
Mathias Jørgensen Blackburn Rovers Actif 114 / 126 40% 1 22.02.2027 -
Mees Rijks Bristol Rovers Actif 113 / 109 40% 1 21.02.2027 -
Marezi Portsmouth Actif 127 / 127 40% 1 21.02.2027 -
Mandla Mahlangu Ajax Cape Town Actif 103 / 108 40% 2 20.02.2027 -
Iwan Morgan Grimsby Town Actif 116 / 116 40% 1 18.02.2027 -
Fally Mayulu Arouca Actif 118 / 112 40% 1 18.02.2027 -
Tyreece Campbell Charlton Athletic Actif 117 / 115 40% 1 16.02.2027 -
Joe Gelhardt Hull City Actif 138 / 124 40% 1 16.02.2027 -
Richard Koné Queens Park Rangers Actif 130 / 118 40% 1 15.02.2027 -
Korede Osundina Casa Pia Actif 117 / 116 40% 1 15.02.2027 -
Slobodan Tedić Akron Actif 94 / 111 40% 1 12.02.2027 -
Alfonso Trezza Arouca Actif 130 / 121 40% 1 12.02.2027 -
Dawda Camara Alverca Actif 122 / 117 40% 2 11.02.2027 -
Luis Palma Lech Actif 140 / 113 40% 1 11.02.2027 -
Tyrese Campbell Sheffield United Actif 123 / 131 40% 2 10.02.2027 -
Robert Mizo Ashanti Gold Actif 109 / 97 40% 1 10.02.2027 -
Mohamed-Ali Cho Hull City Actif 141 / 129 40% 1 09.02.2027 -
David Romero Parma Actif 121 / 126 40% 1 07.02.2027 -
Abu Kamara Portsmouth Actif 121 / 126 40% 1 04.02.2027 -
Dom Ballard Leyton Orient Actif 111 / 131 40% 1 04.02.2027 -
Martín Tejón Maritimo Actif 109 / 127 40% 1 01.02.2027 -
Martim Cunha Porto Actif 100 / 109 62% 1 11.01.2027 Approuver
Andreas Trimmel Red Bull Salzburg Actif 131 / 131 60% 1 01.01.2027 Approuver
Amar Memić Casa Pia Négociation 127 / 128 62% 1 01.01.2027 Approuver
Max Svensson Penafiel Actif 100 / 110 40% 2 31.12.2026 -
Santi García Gil Vicente Actif 140 / 124 40% 2 31.12.2026 -
Francisco Meixedo Feirense Actif 100 / 104 40% 1 28.12.2026 -
Evgeny Staver Rubin Actif 103 / 109 40% 1 28.12.2026 -
Antonio Gomis Vizela Actif 116 / 122 40% 7 26.12.2026 -
Jamie Cumming Oxford United Actif 116 / 116 40% 3 25.12.2026 -
Julian Zapata Cortulua Actif 132 / 132 40% 5 24.12.2026 -
Agustín Lastra Estudiantes Actif 111 / 106 40% 3 23.12.2026 -
Luis Ingolotti Atlético Tucumán Actif 127 / 132 40% 1 23.12.2026 -
Adriel Torreense Actif 119 / 120 40% 4 22.12.2026 -
Lévi Ntumba Slavia Sofia Actif 89 / 94 40% 1 21.12.2026 -
Zach Hemming Chesterfield Actif 97 / 109 40% 2 20.12.2026 -
Adam Jakubech MFK Michalovce Actif 112 / 120 40% 1 19.12.2026 -
Jakub Stolarczyk Leicester City Actif 142 / 126 40% 1 18.12.2026 -
Vitor Hugo Lusitânia Lourosa Actif 107 / 110 40% 1 18.12.2026 -
Jacob Widell Zetterström Derby County Actif 134 / 131 40% 2 17.12.2026 -
George Wickens Lincoln City Actif 120 / 109 40% 1 17.12.2026 -
João Gonçalves Felgueiras Actif 103 / 111 40% 2 16.12.2026 -
Nathan Trott Cardiff City Actif 133 / 130 40% 2 15.12.2026 -
Heorhii Yermakov Metalist Actif 120 / 121 40% 1 14.12.2026 -
Matheus Mendes Alverca Actif 108 / 115 40% 1 13.12.2026 -
Leo Kokubo Sint-Truiden Actif 117 / 111 40% 2 12.12.2026 -
Emiliano González Almagro Actif 132 / 104 40% 2 11.12.2026 -
Martin Velichkov Lokomotiv Sofia Actif 89 / 107 40% 1 11.12.2026 -
Fabijan Buntić Farense Actif 118 / 115 40% 2 10.12.2026 -
Oleh Bilyk Epicentr Actif 103 / 88 40% 1 10.12.2026 -
Felipe Parra Envigado Actif 133 / 118 40% 3 09.12.2026 -
Pol Tristán Barnsley Actif 105 / 114 40% 2 09.12.2026 -
Vladan Kovačević Norwich City Actif 126 / 124 40% 2 08.12.2026 -
Đorđe Nikolić Cukaricki Actif 111 / 115 40% 2 07.12.2026 -
Patrick Sequeira Casa Pia Actif 116 / 125 40% 2 07.12.2026 -
Mandla Erasmus SuperSport United Actif 113 / 121 40% 1 07.12.2026 Plus d'infos
Imrân Louza Watford Actif 122 / 136 40% 1 07.12.2026 Plus d'infos
Lazar Carević Famalicao Actif 132 / 135 40% 4 06.12.2026 -
Lorenzo Palmisani Frosinone Actif 128 / 125 40% 1 04.12.2026 -
Juan Soriano Académico de Viseu Actif 130 / 122 40% 1 03.12.2026 -
Ethan Pye Stockport County Actif 111 / 117 40% 1 02.12.2026 -
Aarón Mejía Tijuana Actif 109 / 113 40% 1 02.12.2026 -
Ortwin De Wolf KV Mechelen Actif 114 / 126 40% 1 30.11.2026 -
Lewis Gibson Preston Actif 118 / 127 40% 1 30.11.2026 -
Brian De Keersmaecker Oxford United Actif 132 / 115 40% 1 30.11.2026 -
Cezary Miszta Rio Ave Actif 142 / 128 40% 3 28.11.2026 -
João Virgínia Wolverhampton Actif 123 / 131 40% 1 26.11.2026 -
Balázs Tóth Blackburn Rovers Actif 118 / 133 40% 1 26.11.2026 -
Niklas Steffen Thun Actif 117 / 112 40% 1 25.11.2026 -
Bradley Mabunda SuperSport United Actif 108 / 109 40% 1 25.11.2026 -
Metod Jurhar Voluntari Actif 109 / 117 40% 1 24.11.2026 -
MT Santa Clara Actif 116 / 128 40% 1 24.11.2026 -
Dara O'Shea Ipswich Town Actif 128 / 127 40% 1 24.11.2026 -
Mirko Topić Norwich City Actif 109 / 118 40% 1 23.11.2026 -
Di'Shon Bernard Sheffield Wednesday Actif 120 / 120 40% 1 23.11.2026 -
Marko Ilić Westerlo Actif 121 / 127 40% 1 19.11.2026 -
Ethan Galbraith Swansea City Actif 139 / 134 40% 1 19.11.2026 -
Michael Cooper Sheffield United Actif 125 / 126 40% 2 16.11.2026 -
Thomas De Bruyne Mouscron Actif 125 / 116 40% 1 16.11.2026 -
Nicolás Sumavil Platense Actif 108 / 121 40% 2 12.11.2026 -
James Pantemis Portland Timbers Actif 103 / 117 40% 2 12.11.2026 -
Víctor Cabezas Union Magdalena Actif 128 / 128 40% 4 10.11.2026 -
Kostantis Tzolakis Hull City Actif 150 / 136 40% 2 09.11.2026 -
Vincent Müller Aalborg Actif 101 / 119 40% 1 08.11.2026 -
Héctor Holguín Veracruz Actif 93 / 116 40% 1 07.11.2026 -
Zé Leite Leixões Actif 108 / 115 40% 1 06.11.2026 -
Simo Maritimo Actif 111 / 121 40% 1 06.11.2026 -
Sorba Thomas Stoke City Actif 126 / 129 40% 1 04.11.2026 -
Luiz Mandaca Juventude Actif 135 / 114 40% 1 04.11.2026 -
Will Dennis Milton Keynes Dons Actif 100 / 105 40% 1 03.11.2026 -
Luis Quintero Torreense Actif 114 / 123 40% 1 01.11.2026 -
Ammar Ramadan DAC Dunajska Streda Actif 133 / 121 40% 1 01.11.2026 -
Ricard Sánchez Estoril Praia Actif 116 / 116 40% 1 29.10.2026 -
Brooke Norton-Cuffy Hull City Actif 128 / 135 40% 1 27.10.2026 -
Mduduzi Shabalala Kaizer Chiefs Actif 110 / 116 40% 1 27.10.2026 -
Liel Abada Charlotte Football Club Actif 130 / 132 40% 1 26.10.2026 -
Benjamin Kanurić SV Ried Actif 117 / 103 40% 1 25.10.2026 Plus d'infos
Stanley Mills Oxford United Actif 115 / 127 40% 1 25.10.2026 -
Márcio Mendes Pandurii Actif 107 / 111 40% 2 24.10.2026 -
Louie Barry Sheffield Wednesday Actif 109 / 123 40% 1 24.10.2026 -
Ali Ahmed Norwich City Actif 127 / 125 40% 1 22.10.2026 -
Yunus Akgün Galatasaray Actif 137 / 131 40% 1 21.10.2026 -
Manu Pozo Torreense Actif 114 / 113 40% 1 17.10.2026 -
Juan Rocca Gimnasia y Tiro Actif 92 / 100 40% 1 17.10.2026 -
Oswin Appollis Orlando Pirates Actif 117 / 127 40% 1 15.10.2026 -
Othmane Maamma Watford Actif 110 / 129 40% 1 15.10.2026 -
Emerson Batalla Atletico Bucaramanga Actif 134 / 122 40% 1 14.10.2026 -
Florentino Luís Ipswich Town Actif 147 / 140 40% 1 14.10.2026 -
Sipho Chaine Orlando Pirates Actif 121 / 115 40% 2 13.10.2026 -
Josh Keeley Luton Town Actif 131 / 124 40% 1 12.10.2026 -
Facundo Vila Estudiantes Actif 92 / 94 40% 1 12.10.2026 -
Roman Celentano FC Cincinnati Actif 105 / 126 40% 3 11.10.2026 -
Erick Reyes Toluca Actif 147 / 136 40% 1 11.10.2026 -
Ignacio Lago Colón Actif 103 / 109 40% 1 11.10.2026 -
Tomás O'Connor Gimnasia y Esgrima Actif 137 / 120 40% 1 11.10.2026 -
Felipe Zenobio Tigre Actif 145 / 126 40% 1 08.10.2026 -
Jorge Ceará Actif 116 / 94 40% 1 08.10.2026 -
Joaquín Pereyra Minnesota United FC Actif 129 / 117 40% 1 08.10.2026 -
Carlos Moreno Pachuca Actif 119 / 127 40% 2 05.10.2026 -
Sebastián Meza Huracán Actif 120 / 116 40% 1 04.10.2026 -
Luiz Júnior TSG Hoffenheim Actif 144 / 137 40% 1 04.10.2026 -
Nahuel Pezzini Arsenal Actif 112 / 96 40% 1 30.09.2026 -
Egil Selvik Watford Actif 131 / 128 40% 1 30.09.2026 -
Ivor Pandur Hull City Actif 110 / 121 40% 1 28.09.2026 -
Sébastien Cibois Portimonense Actif 118 / 102 40% 1 26.09.2026 -
Mark Travers Everton Actif 125 / 137 40% 1 22.09.2026 -
Andrés Gudiño Cruz Azul Actif 121 / 128 40% 1 22.09.2026 -
Patrick Schulte Columbus Crew Actif 106 / 121 40% 2 20.09.2026 -
Will Mannion Charlton Athletic Actif 117 / 117 40% 1 17.09.2026 -
Rustam Yatimov Rostov Actif 104 / 118 40% 1 17.09.2026 -
Christian Joel Sánchez Leiria Actif 113 / 107 40% 1 11.09.2026 -
Lucas Cañizares Tondela Actif 95 / 112 40% 1 11.09.2026 -
Gabriel Díaz Patronato Actif 117 / 105 40% 1 10.09.2026 -
Esteban Glellel Quilmes Actif 119 / 112 40% 1 08.09.2026 -
Pedro Souza LNZ Actif 104 / 87 40% 1 07.09.2026 -
Gonçalo Moreira Benfica Actif 101 / 115 55% 1 03.08.2026 -